Time;durP1;ratioP1;P1;durP2;ratioP2;P2;SDS_P1;SDS_P2;PMS_P1;PMS_P2;Temp;Humidity;BMP_temperature;BMP_pressure;BME280_temperature;BME280_humidity;BME280_pressure;Samples;Min_cycle;Max_cycle;Signal;HPM_P1;HPM_P2
2022/03/15 00:00:43;;;;;;;17.63;14.27;;;6.00;46.90;;;;;;6227568;28;20819;-62
2022/03/15 00:03:47;;;;;;;16.50;14.30;;;6.00;47.00;;;;;;6225900;28;20967;-63
2022/03/15 00:06:50;;;;;;;18.50;14.90;;;6.00;47.10;;;;;;6225466;28;20543;-63
2022/03/15 00:09:53;;;;;;;19.23;15.10;;;5.90;47.20;;;;;;6226000;28;20468;-62
2022/03/15 00:12:57;;;;;;;16.77;15.00;;;5.90;47.30;;;;;;6228380;28;20472;-62
2022/03/15 00:16:03;;;;;;;17.17;14.53;;;5.90;47.50;;;;;;6225593;28;20485;-63
2022/03/15 00:19:06;;;;;;;18.30;13.83;;;5.90;47.70;;;;;;6225193;28;20485;-63
2022/03/15 00:22:10;;;;;;;19.13;14.70;;;5.80;47.70;;;;;;6229501;28;20472;-61
2022/03/15 00:25:16;;;;;;;16.37;14.37;;;5.80;48.60;;;;;;6230357;28;20814;-62
2022/03/15 00:28:22;;;;;;;19.80;13.80;;;5.80;49.60;;;;;;6232522;28;20461;-62
2022/03/15 00:31:26;;;;;;;18.00;13.67;;;5.70;49.70;;;;;;6230619;28;20976;-62
2022/03/15 00:34:29;;;;;;;20.30;14.30;;;5.70;49.60;;;;;;6244748;28;20473;-62
2022/03/15 00:37:32;;;;;;;17.60;14.30;;;5.70;49.90;;;;;;6229984;28;20825;-62
2022/03/15 00:40:36;;;;;;;19.50;14.77;;;5.70;50.10;;;;;;6232553;28;20943;-62
2022/03/15 00:43:39;;;;;;;16.50;13.70;;;5.60;49.60;;;;;;6242384;28;20485;-62
2022/03/15 00:46:43;;;;;;;16.80;13.60;;;5.50;49.30;;;;;;6246878;28;20483;-62
2022/03/15 00:49:46;;;;;;;16.70;13.43;;;5.50;49.10;;;;;;6230854;28;20548;-61
2022/03/15 00:52:50;;;;;;;15.27;13.57;;;5.50;49.00;;;;;;6248579;28;20490;-62
2022/03/15 00:55:53;;;;;;;15.43;13.97;;;5.50;49.00;;;;;;6241516;28;20989;-62
2022/03/15 00:58:56;;;;;;;13.87;12.47;;;5.50;49.00;;;;;;6219454;28;20552;-61
2022/03/15 01:02:01;;;;;;;15.17;13.57;;;5.50;49.10;;;;;;6236950;28;20984;-61
2022/03/15 01:05:05;;;;;;;14.73;13.07;;;5.40;49.30;;;;;;6229466;28;20819;-62
2022/03/15 01:08:09;;;;;;;16.23;13.67;;;5.30;49.30;;;;;;6229425;28;20472;-62
2022/03/15 01:11:12;;;;;;;16.93;13.53;;;5.40;49.50;;;;;;6229362;28;20479;-61
2022/03/15 01:14:15;;;;;;;16.97;13.80;;;5.40;49.40;;;;;;6229671;28;20605;-61
2022/03/15 01:17:19;;;;;;;14.83;13.23;;;5.40;49.50;;;;;;6228879;28;20483;-60
2022/03/15 01:20:23;;;;;;;15.20;12.57;;;5.30;49.60;;;;;;6228826;28;20472;-61
2022/03/15 01:23:26;;;;;;;15.57;12.33;;;5.30;49.70;;;;;;6228506;28;20776;-62
2022/03/15 01:26:29;;;;;;;16.37;14.07;;;5.30;49.90;;;;;;6228877;28;20535;-60
2022/03/15 01:29:32;;;;;;;15.23;13.40;;;5.20;49.90;;;;;;6228624;28;20546;-62
2022/03/15 01:32:37;;;;;;;15.20;13.60;;;5.20;50.20;;;;;;6229056;28;20491;-61
2022/03/15 01:35:40;;;;;;;16.93;12.80;;;5.20;50.30;;;;;;6228396;28;20493;-62
2022/03/15 01:38:44;;;;;;;15.90;13.07;;;5.20;50.30;;;;;;6228568;28;20848;-61
2022/03/15 01:41:47;;;;;;;14.43;12.77;;;5.20;50.30;;;;;;6228254;28;20480;-61
2022/03/15 01:44:51;;;;;;;14.00;12.50;;;5.30;50.30;;;;;;6228739;28;20484;-61
2022/03/15 01:47:55;;;;;;;14.87;13.30;;;5.30;50.40;;;;;;6228197;28;20934;-61
2022/03/15 01:50:58;;;;;;;15.17;12.33;;;5.20;50.40;;;;;;6228728;28;20783;-62
2022/03/15 01:54:01;;;;;;;14.40;12.87;;;5.30;50.50;;;;;;6224528;28;20552;-61
2022/03/15 01:57:07;;;;;;;16.80;13.17;;;5.20;50.60;;;;;;6227919;28;20480;-61
2022/03/15 02:00:11;;;;;;;16.63;13.47;;;5.20;50.60;;;;;;6227735;28;20846;-62
2022/03/15 02:03:16;;;;;;;14.47;11.80;;;5.20;50.60;;;;;;6227883;28;20813;-61
2022/03/15 02:06:19;;;;;;;16.50;14.67;;;5.20;50.80;;;;;;6227924;28;20943;-61
2022/03/15 02:09:22;;;;;;;15.23;13.07;;;5.20;50.80;;;;;;6227320;28;20492;-61
2022/03/15 02:12:27;;;;;;;14.10;12.57;;;5.20;50.90;;;;;;6227629;28;20442;-61
2022/03/15 02:15:30;;;;;;;14.63;12.33;;;5.20;50.90;;;;;;6227445;28;20874;-61
2022/03/15 02:18:34;;;;;;;12.40;11.20;;;5.20;51.00;;;;;;6227247;28;20768;-63
2022/03/15 02:21:39;;;;;;;14.23;12.10;;;5.20;51.70;;;;;;6227343;28;20464;-62
2022/03/15 02:24:43;;;;;;;14.33;12.70;;;5.20;51.10;;;;;;6227791;28;20460;-62
2022/03/15 02:27:46;;;;;;;15.40;12.20;;;5.20;51.10;;;;;;6227320;28;20468;-62
2022/03/15 02:30:49;;;;;;;15.83;13.03;;;5.20;51.30;;;;;;6227148;28;20491;-62
2022/03/15 02:33:52;;;;;;;15.90;13.33;;;5.10;51.50;;;;;;6227176;28;20951;-61
2022/03/15 02:36:57;;;;;;;16.40;12.77;;;5.10;51.50;;;;;;6227349;28;20476;-60
2022/03/15 02:40:00;;;;;;;14.40;12.23;;;5.10;51.60;;;;;;6227211;28;20873;-61
2022/03/15 02:43:03;;;;;;;15.47;12.37;;;5.10;51.60;;;;;;6227218;28;20534;-61
2022/03/15 02:46:07;;;;;;;15.27;12.73;;;5.20;51.60;;;;;;6227178;28;20483;-61
2022/03/15 02:49:10;;;;;;;15.80;12.60;;;5.10;51.50;;;;;;6226877;28;20492;-61
2022/03/15 02:52:15;;;;;;;18.23;13.13;;;5.20;51.70;;;;;;6226568;28;20484;-60
2022/03/15 02:55:19;;;;;;;13.37;12.03;;;5.10;51.60;;;;;;6227010;28;20483;-60
2022/03/15 02:58:22;;;;;;;15.07;13.10;;;5.00;51.60;;;;;;6213313;28;20503;-60
2022/03/15 03:01:25;;;;;;;13.87;12.37;;;5.00;51.60;;;;;;6226987;28;20479;-61
2022/03/15 03:04:28;;;;;;;17.03;12.27;;;5.00;52.10;;;;;;6226539;28;20502;-61
2022/03/15 03:07:35;;;;;;;13.77;12.37;;;5.00;52.20;;;;;;6226609;28;20488;-61
2022/03/15 03:10:39;;;;;;;14.77;11.93;;;4.90;52.50;;;;;;6226124;28;21006;-61
2022/03/15 03:13:42;;;;;;;16.00;12.30;;;4.90;52.70;;;;;;6226085;28;20472;-61
2022/03/15 03:16:45;;;;;;;15.57;12.57;;;4.90;52.80;;;;;;6226384;28;20473;-61
2022/03/15 03:19:48;;;;;;;13.70;12.07;;;4.90;53.00;;;;;;6226125;28;20480;-62
2022/03/15 03:22:53;;;;;;;12.57;11.33;;;4.90;53.00;;;;;;6226239;28;20468;-61
2022/03/15 03:25:56;;;;;;;13.17;11.37;;;4.80;53.20;;;;;;6225986;28;20483;-61
2022/03/15 03:28:59;;;;;;;13.73;11.67;;;4.80;53.20;;;;;;6226227;28;20496;-61
2022/03/15 03:32:04;;;;;;;15.07;12.53;;;4.80;53.30;;;;;;6227147;28;20483;-62
2022/03/15 03:35:07;;;;;;;12.97;11.70;;;4.80;53.40;;;;;;6225841;28;20817;-61
2022/03/15 03:38:12;;;;;;;13.70;12.23;;;4.90;53.40;;;;;;6225839;28;20486;-61
2022/03/15 03:41:16;;;;;;;14.40;11.40;;;4.90;54.00;;;;;;6225898;28;20480;-61
2022/03/15 03:44:19;;;;;;;18.37;13.23;;;4.90;53.20;;;;;;6225683;28;20480;-61
2022/03/15 03:47:22;;;;;;;15.17;12.60;;;4.90;53.50;;;;;;6225655;28;20476;-61
2022/03/15 03:50:25;;;;;;;14.40;13.00;;;4.90;54.10;;;;;;6225333;28;20488;-61
2022/03/15 03:53:30;;;;;;;13.97;12.57;;;4.90;53.60;;;;;;6225695;28;20476;-62
2022/03/15 03:56:33;;;;;;;14.77;13.17;;;4.90;53.70;;;;;;6225285;28;20476;-61
2022/03/15 03:59:37;;;;;;;15.10;12.23;;;4.90;53.70;;;;;;6225697;28;20472;-61
2022/03/15 04:02:40;;;;;;;17.70;15.80;;;4.90;53.70;;;;;;6220913;28;20809;-62
2022/03/15 04:05:44;;;;;;;19.17;16.00;;;4.90;53.80;;;;;;6225189;28;20490;-62
2022/03/15 04:08:48;;;;;;;16.47;14.20;;;4.80;54.00;;;;;;6225321;28;20479;-61
2022/03/15 04:11:52;;;;;;;16.20;12.90;;;4.80;54.20;;;;;;6226080;28;20476;-61
2022/03/15 04:14:58;;;;;;;13.43;11.50;;;4.70;54.30;;;;;;6225188;28;20472;-61
2022/03/15 04:18:01;;;;;;;13.67;11.87;;;4.80;54.40;;;;;;6224864;28;21039;-61
2022/03/15 04:21:04;;;;;;;14.23;12.47;;;4.90;54.40;;;;;;6224898;28;20480;-61
2022/03/15 04:24:09;;;;;;;15.23;10.43;;;4.80;54.30;;;;;;6224863;28;20468;-61
2022/03/15 04:27:12;;;;;;;12.70;11.40;;;4.80;54.40;;;;;;6224955;28;20473;-61
2022/03/15 04:30:15;;;;;;;13.93;11.57;;;4.80;54.40;;;;;;6225254;28;20480;-61
2022/03/15 04:33:18;;;;;;;15.80;10.80;;;4.80;54.40;;;;;;6225438;28;20452;-61
2022/03/15 04:36:21;;;;;;;15.03;11.53;;;4.70;54.70;;;;;;6224895;28;20448;-61
2022/03/15 04:39:26;;;;;;;14.17;12.60;;;4.70;54.80;;;;;;6224832;28;20479;-61
2022/03/15 04:42:30;;;;;;;14.40;12.00;;;4.80;55.00;;;;;;6225411;28;20807;-61
2022/03/15 04:45:33;;;;;;;15.23;13.37;;;4.80;54.90;;;;;;6225099;28;20455;-61
2022/03/15 04:48:36;;;;;;;14.17;12.57;;;4.80;54.90;;;;;;6225210;28;20468;-61
2022/03/15 04:51:39;;;;;;;13.40;12.00;;;4.80;55.00;;;;;;6224537;28;20480;-61
2022/03/15 04:54:44;;;;;;;17.77;11.20;;;4.80;55.10;;;;;;6225960;28;20480;-61
2022/03/15 04:57:47;;;;;;;12.53;11.17;;;4.80;55.10;;;;;;6224944;28;20472;-61
2022/03/15 05:00:50;;;;;;;15.33;12.30;;;4.70;55.00;;;;;;6224793;28;20475;-61
2022/03/15 05:03:53;;;;;;;15.60;11.90;;;4.80;55.10;;;;;;6225083;28;20483;-61
2022/03/15 05:06:56;;;;;;;14.43;11.60;;;4.80;55.10;;;;;;6226347;28;20990;-61
2022/03/15 05:13:21;;;;;;;14.70;12.13;;;4.80;54.90;;;;;;6228965;28;20813;-61
2022/03/15 05:16:25;;;;;;;14.13;12.60;;;4.80;55.00;;;;;;6228814;28;20479;-61
2022/03/15 05:19:28;;;;;;;17.20;13.10;;;4.80;55.10;;;;;;6229877;28;20955;-63
2022/03/15 05:22:32;;;;;;;15.87;12.70;;;4.80;54.90;;;;;;6229469;28;20464;-61
2022/03/15 05:25:37;;;;;;;16.23;12.80;;;4.80;55.00;;;;;;6230265;28;20564;-62
2022/03/15 05:28:40;;;;;;;15.83;12.50;;;4.90;54.90;;;;;;6230266;28;20472;-63
2022/03/15 05:31:43;;;;;;;15.77;13.17;;;4.90;54.90;;;;;;6230569;28;20490;-61
2022/03/15 05:34:46;;;;;;;17.97;12.90;;;5.00;54.90;;;;;;6229821;28;20476;-61
2022/03/15 05:37:49;;;;;;;14.20;12.60;;;5.00;54.70;;;;;;6228581;28;20476;-60
2022/03/15 05:40:55;;;;;;;16.23;13.33;;;5.00;54.80;;;;;;6228965;28;20559;-60
2022/03/15 05:44:17;;;;;;;15.03;12.33;;;5.00;54.70;;;;;;6228568;28;20483;-61
2022/03/15 05:47:20;;;;;;;18.40;13.43;;;5.10;54.90;;;;;;6228792;28;20480;-61
2022/03/15 05:50:23;;;;;;;16.07;13.87;;;5.20;54.90;;;;;;6229771;28;20483;-61
2022/03/15 05:53:26;;;;;;;19.23;14.90;;;5.10;54.80;;;;;;6230543;28;20484;-61
2022/03/15 05:56:34;;;;;;;21.83;17.63;;;5.10;55.10;;;;;;6228072;28;20813;-60
2022/03/15 05:59:37;;;;;;;20.07;16.67;;;4.90;55.30;;;;;;6227925;28;20550;-60
2022/03/15 06:02:40;;;;;;;21.77;17.43;;;4.90;55.70;;;;;;6228050;28;20465;-60
2022/03/15 06:05:44;;;;;;;24.50;18.23;;;4.90;55.70;;;;;;6227757;28;20468;-60
2022/03/15 06:08:48;;;;;;;25.50;19.00;;;5.00;55.70;;;;;;6227665;28;20476;-61
2022/03/15 06:11:54;;;;;;;19.30;16.37;;;5.10;55.30;;;;;;6213263;28;20979;-61
2022/03/15 06:14:57;;;;;;;22.63;17.33;;;5.20;55.30;;;;;;6227664;28;21118;-61
2022/03/15 06:18:01;;;;;;;23.93;18.30;;;5.40;55.10;;;;;;6226778;28;20806;-61
2022/03/15 06:21:04;;;;;;;23.37;18.37;;;5.50;54.30;;;;;;6227312;28;20493;-60
2022/03/15 06:24:08;;;;;;;26.77;19.60;;;5.70;54.00;;;;;;6228200;28;20479;-61
2022/03/15 06:27:12;;;;;;;23.10;19.07;;;5.70;53.60;;;;;;6227919;28;20903;-61
2022/03/15 06:30:16;;;;;;;26.63;20.80;;;5.90;53.20;;;;;;6226841;28;20824;-61
2022/03/15 06:33:19;;;;;;;24.07;18.50;;;6.00;52.70;;;;;;6227140;28;20509;-60
2022/03/15 06:36:22;;;;;;;25.77;19.60;;;6.10;52.40;;;;;;6226541;28;20897;-60
2022/03/15 06:39:25;;;;;;;22.90;19.67;;;6.10;52.40;;;;;;6226693;28;20789;-61
2022/03/15 06:42:31;;;;;;;23.40;18.60;;;6.30;52.50;;;;;;6227245;28;20449;-61
2022/03/15 06:45:34;;;;;;;22.43;19.30;;;6.40;52.40;;;;;;6227007;28;20449;-60
2022/03/15 06:48:37;;;;;;;21.90;18.47;;;6.40;52.20;;;;;;6227255;28;20494;-61
2022/03/15 06:51:40;;;;;;;23.60;17.47;;;6.50;52.20;;;;;;6226698;28;20465;-61
2022/03/15 06:54:44;;;;;;;24.73;19.30;;;6.60;51.90;;;;;;6227159;28;20468;-60
2022/03/15 06:57:48;;;;;;;23.30;17.43;;;6.70;52.10;;;;;;6227262;28;20479;-60
2022/03/15 07:00:52;;;;;;;20.77;17.90;;;6.80;51.50;;;;;;6228643;28;20468;-60
2022/03/15 07:03:55;;;;;;;23.80;19.07;;;6.70;51.30;;;;;;6228828;28;20469;-60
2022/03/15 07:06:58;;;;;;;38.10;23.57;;;6.80;51.50;;;;;;6227227;28;20978;-60
2022/03/15 07:10:05;;;;;;;24.57;20.57;;;7.00;51.20;;;;;;6227119;28;20493;-61
2022/03/15 07:13:10;;;;;;;20.83;18.63;;;7.30;50.70;;;;;;6216954;28;20489;-60
2022/03/15 07:16:13;;;;;;;28.77;20.40;;;7.50;50.50;;;;;;6226661;28;20479;-60
2022/03/15 07:19:16;;;;;;;20.90;18.70;;;7.80;49.80;;;;;;6226748;28;20482;-60
2022/03/15 07:22:19;;;;;;;22.53;18.67;;;8.10;49.40;;;;;;6226599;28;20474;-61
2022/03/15 07:25:23;;;;;;;25.90;20.30;;;8.40;48.70;;;;;;6226818;28;20502;-60
2022/03/15 07:28:27;;;;;;;29.00;19.20;;;8.90;48.00;;;;;;6226439;28;20478;-61
2022/03/15 07:31:31;;;;;;;23.70;18.07;;;9.50;46.80;;;;;;6226636;28;20509;-61
2022/03/15 07:34:34;;;;;;;23.50;18.13;;;10.30;44.50;;;;;;6226129;28;20475;-60
2022/03/15 07:37:37;;;;;;;22.80;20.23;;;10.90;42.70;;;;;;6226015;28;20974;-60
2022/03/15 07:40:41;;;;;;;25.00;18.43;;;11.40;41.80;;;;;;6225880;28;20497;-61
2022/03/15 07:43:46;;;;;;;26.30;18.30;;;11.80;40.70;;;;;;6226205;28;20481;-60
2022/03/15 07:46:49;;;;;;;22.47;18.23;;;12.00;40.50;;;;;;6225967;28;20482;-60
2022/03/15 07:49:53;;;;;;;20.63;17.87;;;12.10;39.60;;;;;;6225831;28;20494;-60
2022/03/15 07:52:56;;;;;;;22.63;19.80;;;12.40;39.50;;;;;;6225236;28;20522;-61
2022/03/15 07:56:00;;;;;;;22.70;19.10;;;12.60;39.00;;;;;;6225356;28;20468;-61
2022/03/15 07:59:04;;;;;;;26.80;20.13;;;12.80;38.80;;;;;;6224390;28;20961;-60
2022/03/15 08:02:08;;;;;;;22.17;19.47;;;13.30;37.80;;;;;;6224683;28;20855;-61
2022/03/15 08:05:11;;;;;;;30.27;19.67;;;14.10;37.20;;;;;;6224269;28;20472;-61
2022/03/15 08:08:15;;;;;;;27.83;18.83;;;15.10;35.70;;;;;;6225322;28;20483;-61
2022/03/15 08:11:18;;;;;;;29.53;21.13;;;15.90;33.90;;;;;;6237421;28;20474;-61
2022/03/15 08:14:23;;;;;;;21.33;19.13;;;16.70;33.00;;;;;;6241857;28;20468;-61
2022/03/15 08:17:26;;;;;;;21.97;19.57;;;17.60;31.30;;;;;;6228782;28;20464;-61
2022/03/15 08:20:33;;;;;;;29.40;20.50;;;18.50;30.00;;;;;;6235326;28;20541;-61
2022/03/15 08:23:36;;;;;;;25.70;20.10;;;19.30;29.30;;;;;;6235262;28;20224;-63
2022/03/15 08:26:40;;;;;;;22.40;20.00;;;19.50;28.20;;;;;;6239477;28;20547;-62
2022/03/15 08:29:44;;;;;;;26.50;21.40;;;19.40;28.00;;;;;;6236651;28;20230;-62
2022/03/15 08:32:48;;;;;;;23.83;21.33;;;18.70;28.40;;;;;;6236600;28;20296;-63
2022/03/15 08:35:51;;;;;;;27.27;22.03;;;17.90;28.70;;;;;;6233558;28;20221;-61
2022/03/15 08:38:54;;;;;;;24.17;21.30;;;17.30;29.30;;;;;;6250113;28;20486;-61
2022/03/15 08:41:58;;;;;;;22.57;20.13;;;16.90;30.00;;;;;;6251850;28;20471;-61
2022/03/15 08:45:02;;;;;;;23.40;20.00;;;16.70;30.20;;;;;;6254770;28;20986;-62
2022/03/15 08:48:06;;;;;;;27.90;22.00;;;16.90;30.30;;;;;;6245427;28;20471;-61
2022/03/15 08:51:09;;;;;;;30.80;23.20;;;17.30;30.00;;;;;;6253731;28;20502;-61
2022/03/15 08:54:13;;;;;;;28.00;22.33;;;17.80;29.90;;;;;;6254027;28;20486;-63
2022/03/15 08:57:17;;;;;;;26.30;22.90;;;18.50;29.10;;;;;;6254006;28;20228;-61
2022/03/15 09:00:21;;;;;;;34.13;26.60;;;19.80;28.30;;;;;;6251912;28;20307;-61
2022/03/15 09:03:25;;;;;;;30.63;27.35;;;21.00;27.10;;;;;;6227823;28;20764;-61
2022/03/15 09:06:28;;;;;;;34.30;25.70;;;21.10;26.50;;;;;;6229400;28;20208;-62
2022/03/15 09:09:31;;;;;;;32.40;24.90;;;20.90;26.40;;;;;;6229113;28;20224;-61
2022/03/15 09:12:35;;;;;;;27.03;24.23;;;21.20;26.20;;;;;;6228464;28;20231;-60
2022/03/15 09:15:39;;;;;;;31.17;26.67;;;21.80;25.80;;;;;;6228135;28;20205;-62
2022/03/15 09:18:43;;;;;;;26.67;24.00;;;22.00;25.20;;;;;;6228877;28;20316;-61
2022/03/15 09:21:46;;;;;;;29.20;24.47;;;22.70;24.80;;;;;;6220020;28;20239;-61
2022/03/15 09:24:49;;;;;;;31.90;27.77;;;23.30;24.10;;;;;;6229087;28;20244;-62
2022/03/15 09:27:53;;;;;;;27.37;23.53;;;23.80;24.00;;;;;;6228437;28;20592;-63
2022/03/15 09:30:58;;;;;;;31.90;26.60;;;24.80;23.50;;;;;;6229175;28;20240;-62
2022/03/15 09:34:01;;;;;;;34.17;25.43;;;25.20;22.80;;;;;;6227487;28;20251;-61
2022/03/15 09:37:05;;;;;;;28.70;25.77;;;25.30;22.00;;;;;;6227345;28;20244;-62
2022/03/15 09:40:10;;;;;;;31.60;24.60;;;24.90;22.20;;;;;;6227082;28;20240;-63
2022/03/15 09:43:14;;;;;;;29.53;25.17;;;25.70;22.00;;;;;;6226881;28;20228;-62
2022/03/15 09:46:22;;;;;;;28.40;25.40;;;26.00;21.60;;;;;;6227006;28;20241;-64
2022/03/15 09:49:46;;;;;;;26.17;23.67;;;26.50;21.50;;;;;;6227720;28;20315;-63
2022/03/15 09:52:55;;;;;;;27.83;25.13;;;26.70;21.10;;;;;;6228066;28;20768;-62
2022/03/15 09:55:58;;;;;;;30.27;26.40;;;26.80;20.50;;;;;;6228787;28;20246;-63
2022/03/15 09:59:02;;;;;;;29.27;25.50;;;26.80;20.50;;;;;;6230337;28;20238;-62
2022/03/15 10:02:06;;;;;;;28.20;25.27;;;27.50;20.20;;;;;;6233323;28;20243;-62
2022/03/15 10:05:11;;;;;;;28.33;25.73;;;27.60;19.50;;;;;;6228469;28;20237;-62
2022/03/15 10:08:15;;;;;;;31.73;25.17;;;27.70;19.50;;;;;;6227949;28;20232;-61
2022/03/15 10:11:19;;;;;;;35.40;25.20;;;27.60;19.10;;;;;;6228056;28;20743;-61
2022/03/15 10:14:23;;;;;;;27.13;24.30;;;26.90;19.80;;;;;;6227770;28;20232;-62
2022/03/15 10:17:28;;;;;;;28.40;25.70;;;27.10;19.60;;;;;;6228021;28;20236;-61
2022/03/15 10:20:43;;;;;;;25.63;23.23;;;26.60;19.90;;;;;;6227355;28;20259;-62
2022/03/15 10:23:46;;;;;;;27.27;24.00;;;26.50;20.10;;;;;;6227865;28;20224;-62
2022/03/15 10:26:51;;;;;;;26.63;23.93;;;26.80;20.10;;;;;;6218371;28;20232;-63
2022/03/15 10:29:54;;;;;;;26.43;23.70;;;27.10;19.90;;;;;;6227633;28;20240;-61
2022/03/15 10:32:59;;;;;;;27.30;24.53;;;27.10;19.60;;;;;;6227719;28;20240;-61
2022/03/15 10:36:02;;;;;;;26.27;23.80;;;27.10;19.20;;;;;;6228265;28;20354;-63
2022/03/15 10:39:06;;;;;;;25.33;22.60;;;26.50;19.90;;;;;;6228564;28;20243;-61
2022/03/15 10:42:12;;;;;;;24.10;22.00;;;26.40;19.50;;;;;;6226950;28;20228;-62
2022/03/15 10:45:17;;;;;;;25.53;23.13;;;25.30;19.80;;;;;;6227193;28;20243;-60
2022/03/15 10:48:26;;;;;;;22.93;20.80;;;25.70;20.30;;;;;;6228149;28;20609;-62
2022/03/15 10:51:29;;;;;;;24.33;22.13;;;26.50;19.40;;;;;;6228768;28;20244;-62
2022/03/15 10:54:33;;;;;;;22.13;20.03;;;26.70;18.70;;;;;;6227800;28;20322;-61
2022/03/15 10:57:48;;;;;;;22.50;20.23;;;26.20;18.80;;;;;;6227299;28;20539;-62
2022/03/15 11:00:54;;;;;;;23.03;21.03;;;25.90;19.50;;;;;;6226628;28;20232;-62
2022/03/15 11:04:00;;;;;;;20.00;18.40;;;26.30;19.30;;;;;;6225758;28;20311;-62
2022/03/15 11:07:04;;;;;;;18.83;17.33;;;26.10;18.90;;;;;;6227443;28;20320;-61
2022/03/15 11:10:12;;;;;;;20.73;18.93;;;24.60;19.70;;;;;;6230218;28;20236;-62
2022/03/15 11:13:17;;;;;;;20.07;17.97;;;24.20;20.00;;;;;;6239397;28;20233;-61
2022/03/15 11:16:20;;;;;;;19.93;18.00;;;24.30;20.40;;;;;;6236850;28;20224;-64
2022/03/15 11:19:29;;;;;;;18.67;16.97;;;25.00;20.50;;;;;;6237123;28;20229;-62
2022/03/15 11:22:34;;;;;;;20.23;18.43;;;25.20;20.20;;;;;;6237771;28;20238;-63
2022/03/15 11:25:39;;;;;;;20.90;18.90;;;24.20;20.60;;;;;;6239622;28;20584;-63
2022/03/15 11:28:46;;;;;;;20.47;18.30;;;22.90;21.60;;;;;;6229454;28;20240;-64
2022/03/15 11:31:51;;;;;;;19.83;17.97;;;22.20;22.30;;;;;;6237419;28;20224;-64
2022/03/15 11:34:56;;;;;;;18.67;16.87;;;21.30;23.10;;;;;;6241313;28;20660;-64
2022/03/15 11:38:00;;;;;;;19.00;16.93;;;21.30;23.70;;;;;;6230823;28;20236;-64
2022/03/15 11:41:04;;;;;;;18.80;16.80;;;21.30;23.50;;;;;;6225619;28;20573;-66
2022/03/15 11:44:16;;;;;;;20.97;17.23;;;21.60;23.30;;;;;;6225545;28;20243;-64
2022/03/15 11:47:30;;;;;;;19.07;17.13;;;21.90;23.60;;;;;;6225890;28;20390;-64
2022/03/15 11:50:40;;;;;;;18.80;17.07;;;22.60;23.20;;;;;;6226246;28;20480;-65
2022/03/15 11:53:53;;;;;;;18.93;17.13;;;22.30;23.10;;;;;;6226167;28;20244;-65
2022/03/15 11:56:59;;;;;;;19.10;17.40;;;21.10;24.00;;;;;;6226352;28;20244;-64
2022/03/15 12:00:02;;;;;;;19.60;16.40;;;20.50;24.70;;;;;;6225600;28;20241;-63
2022/03/15 12:03:07;;;;;;;17.33;15.67;;;19.30;25.90;;;;;;6225414;28;20556;-64
2022/03/15 12:06:19;;;;;;;15.10;13.70;;;18.40;26.70;;;;;;6226800;28;20225;-63
2022/03/15 12:09:25;;;;;;;15.57;14.07;;;18.10;27.10;;;;;;6225177;28;20217;-63
2022/03/15 12:12:33;;;;;;;17.50;15.80;;;17.80;27.30;;;;;;6225103;28;20212;-63
2022/03/15 12:15:38;;;;;;;16.07;14.40;;;17.20;28.20;;;;;;6225048;28;20476;-65
2022/03/15 12:18:47;;;;;;;17.87;14.87;;;17.00;28.30;;;;;;6230488;28;20271;-62
2022/03/15 12:21:54;;;;;;;16.40;14.80;;;16.90;28.60;;;;;;6230374;28;20468;-63
2022/03/15 12:25:05;;;;;;;13.93;12.53;;;16.80;28.70;;;;;;6230398;28;20480;-63
2022/03/15 12:28:30;;;;;;;14.67;13.17;;;16.20;29.10;;;;;;6230168;28;20475;-62
2022/03/15 12:31:39;;;;;;;14.73;13.00;;;15.90;29.40;;;;;;6230527;28;20483;-63
2022/03/15 12:34:44;;;;;;;20.43;11.73;;;15.70;29.80;;;;;;6220382;28;20488;-63
2022/03/15 12:37:49;;;;;;;16.47;12.27;;;15.50;30.10;;;;;;6230034;28;20475;-59
2022/03/15 12:40:53;;;;;;;13.60;12.30;;;15.40;31.00;;;;;;6229649;28;20472;-59
2022/03/15 12:43:56;;;;;;;14.77;12.70;;;15.20;30.70;;;;;;6230528;28;20476;-59
2022/03/15 12:46:59;;;;;;;13.93;12.50;;;14.80;31.10;;;;;;6229895;28;20472;-59
2022/03/15 12:50:12;;;;;;;13.83;12.27;;;14.80;31.60;;;;;;6230231;28;20484;-60
2022/03/15 12:53:33;;;;;;;14.77;13.30;;;14.90;31.60;;;;;;6229861;28;20479;-57
2022/03/15 12:56:43;;;;;;;16.57;12.10;;;15.00;31.50;;;;;;6229451;28;20477;-58
2022/03/15 12:59:51;;;;;;;16.87;14.37;;;14.90;31.60;;;;;;6229623;28;20484;-65
2022/03/15 13:02:57;;;;;;;19.23;12.70;;;14.70;32.20;;;;;;6230116;28;20487;-63
2022/03/15 13:06:00;;;;;;;14.30;12.90;;;14.80;32.20;;;;;;6230251;28;20831;-64
2022/03/15 13:09:06;;;;;;;12.47;11.20;;;14.80;32.30;;;;;;6230156;28;20482;-61
2022/03/15 13:12:16;;;;;;;14.10;12.30;;;14.80;32.50;;;;;;6229288;28;20482;-62
2022/03/15 13:15:20;;;;;;;13.90;12.40;;;14.70;32.40;;;;;;6228831;28;20825;-58
2022/03/15 13:18:24;;;;;;;13.77;12.37;;;14.70;32.60;;;;;;6229161;28;20460;-60
2022/03/15 13:21:33;;;;;;;13.73;12.33;;;14.70;32.80;;;;;;6229652;28;20459;-61
2022/03/15 13:24:38;;;;;;;14.53;13.17;;;14.80;32.90;;;;;;6229390;28;20440;-63
2022/03/15 13:27:41;;;;;;;15.90;12.33;;;14.90;32.80;;;;;;6228686;28;20471;-61
2022/03/15 13:30:45;;;;;;;13.60;11.93;;;15.00;32.90;;;;;;6228883;28;20479;-62
2022/03/15 13:33:50;;;;;;;14.10;12.70;;;14.80;33.70;;;;;;6229160;28;20478;-62
2022/03/15 13:36:55;;;;;;;14.77;13.00;;;14.70;33.40;;;;;;6224275;28;20558;-65
2022/03/15 13:40:00;;;;;;;13.13;11.83;;;14.70;33.40;;;;;;6228386;28;20483;-61
2022/03/15 13:43:04;;;;;;;15.20;12.13;;;14.70;33.40;;;;;;6229775;28;20483;-60
2022/03/15 13:46:08;;;;;;;14.13;11.70;;;14.70;33.70;;;;;;6228119;28;20472;-61
2022/03/15 13:49:17;;;;;;;14.83;13.40;;;14.70;33.50;;;;;;6228783;28;20476;-60
2022/03/15 13:52:23;;;;;;;14.40;12.00;;;14.70;33.60;;;;;;6228603;28;20491;-61
2022/03/15 13:55:28;;;;;;;14.50;12.90;;;14.70;33.90;;;;;;6228054;28;20480;-61
2022/03/15 13:58:31;;;;;;;17.03;14.00;;;14.60;33.90;;;;;;6228117;28;20468;-60
2022/03/15 14:01:36;;;;;;;13.90;11.90;;;14.60;34.10;;;;;;6215234;28;20481;-61
2022/03/15 14:04:39;;;;;;;13.83;12.30;;;14.40;34.40;;;;;;6203090;28;21010;-59
2022/03/15 14:07:43;;;;;;;16.23;13.30;;;14.30;34.50;;;;;;6204443;28;20477;-62
2022/03/15 14:10:47;;;;;;;14.07;12.77;;;14.30;34.80;;;;;;6205352;28;20481;-64
2022/03/15 14:13:56;;;;;;;19.17;14.03;;;14.30;34.90;;;;;;6204166;28;20480;-61
2022/03/15 14:17:02;;;;;;;17.10;13.70;;;14.40;35.00;;;;;;6203683;28;20551;-62
2022/03/15 14:20:13;;;;;;;16.63;13.63;;;14.40;34.90;;;;;;6202727;28;20477;-61
2022/03/15 14:23:17;;;;;;;15.40;13.30;;;14.40;34.90;;;;;;6215969;28;20476;-63
2022/03/15 14:26:28;;;;;;;15.40;13.13;;;14.40;34.80;;;;;;6227015;28;20976;-61
2022/03/15 14:29:33;;;;;;;14.70;13.00;;;14.50;34.80;;;;;;6227476;28;20472;-61
2022/03/15 14:32:37;;;;;;;15.03;13.53;;;14.50;34.80;;;;;;6227058;28;20468;-61
2022/03/15 14:35:42;;;;;;;18.70;15.67;;;14.50;34.70;;;;;;6226300;28;20995;-59
2022/03/15 14:38:46;;;;;;;16.03;14.03;;;14.50;34.80;;;;;;6224755;28;20960;-60
2022/03/15 14:41:51;;;;;;;22.83;15.90;;;14.40;34.80;;;;;;6216522;28;20499;-60
2022/03/15 14:44:56;;;;;;;15.60;14.00;;;14.40;35.00;;;;;;6225483;28;20487;-60
2022/03/15 14:48:00;;;;;;;14.87;13.27;;;14.40;35.30;;;;;;6225514;28;20826;-59
2022/03/15 14:51:05;;;;;;;15.60;14.00;;;14.30;35.40;;;;;;6226636;28;20496;-59
2022/03/15 14:54:08;;;;;;;16.10;14.40;;;14.20;35.50;;;;;;6227527;28;20476;-63
2022/03/15 14:57:17;;;;;;;16.53;14.63;;;14.10;35.70;;;;;;6227405;28;20495;-63
2022/03/15 15:00:21;;;;;;;22.60;16.23;;;14.00;36.10;;;;;;6226380;28;20485;-61
2022/03/15 15:03:25;;;;;;;19.40;14.53;;;13.90;36.30;;;;;;6225678;28;20469;-62
2022/03/15 15:06:29;;;;;;;16.43;14.70;;;13.90;36.40;;;;;;6226924;28;20584;-64
2022/03/15 15:09:32;;;;;;;15.50;14.00;;;13.80;36.60;;;;;;6226684;28;20495;-58
2022/03/15 15:12:36;;;;;;;18.50;13.90;;;13.70;36.70;;;;;;6227289;28;20448;-60
2022/03/15 15:15:41;;;;;;;15.07;13.47;;;13.70;36.80;;;;;;6226715;28;20530;-60
2022/03/15 15:18:45;;;;;;;17.87;15.73;;;13.60;36.80;;;;;;6226664;28;20475;-61
2022/03/15 15:21:48;;;;;;;19.63;14.90;;;13.60;37.00;;;;;;6226868;28;20487;-61
2022/03/15 15:24:54;;;;;;;22.80;15.37;;;13.50;37.10;;;;;;6244511;28;20474;-60
2022/03/15 15:27:59;;;;;;;15.37;13.80;;;13.50;37.20;;;;;;6237540;28;20472;-60
2022/03/15 15:31:04;;;;;;;15.20;13.70;;;13.50;37.50;;;;;;6228295;28;20484;-63
2022/03/15 15:34:07;;;;;;;18.00;16.10;;;13.40;37.60;;;;;;6229587;28;20952;-63
2022/03/15 15:37:12;;;;;;;20.80;17.80;;;13.40;37.80;;;;;;6236951;28;20472;-62
2022/03/15 15:40:19;;;;;;;19.90;16.03;;;13.30;37.80;;;;;;6232585;28;20472;-62
2022/03/15 15:43:25;;;;;;;20.70;16.80;;;13.30;37.90;;;;;;6230744;28;20472;-64